sensor_id;sensor_type;location;lat;lon;timestamp;P1;durP1;ratioP1;P2;durP2;ratioP2
45344;SDS011;31078;48.304;11.896;2022-10-18T00:02:00;10.45;;;5.07;;
45344;SDS011;31078;48.304;11.896;2022-10-18T00:04:27;12.85;;;5.53;;
45344;SDS011;31078;48.304;11.896;2022-10-18T00:06:53;9.45;;;4.88;;
45344;SDS011;31078;48.304;11.896;2022-10-18T00:09:21;7.95;;;4.75;;
45344;SDS011;31078;48.304;11.896;2022-10-18T00:11:48;8.02;;;4.80;;
45344;SDS011;31078;48.304;11.896;2022-10-18T00:14:15;9.13;;;5.75;;
45344;SDS011;31078;48.304;11.896;2022-10-18T00:16:42;9.88;;;6.07;;
45344;SDS011;31078;48.304;11.896;2022-10-18T00:19:08;7.10;;;4.90;;
45344;SDS011;31078;48.304;11.896;2022-10-18T00:21:35;10.85;;;5.88;;
45344;SDS011;31078;48.304;11.896;2022-10-18T00:24:02;11.90;;;5.68;;
45344;SDS011;31078;48.304;11.896;2022-10-18T00:26:31;11.18;;;6.28;;
45344;SDS011;31078;48.304;11.896;2022-10-18T00:28:58;13.10;;;5.78;;
45344;SDS011;31078;48.304;11.896;2022-10-18T00:31:26;10.07;;;6.25;;
45344;SDS011;31078;48.304;11.896;2022-10-18T00:33:57;8.10;;;5.40;;
45344;SDS011;31078;48.304;11.896;2022-10-18T00:36:25;8.50;;;5.15;;
45344;SDS011;31078;48.304;11.896;2022-10-18T00:38:53;9.88;;;5.50;;
45344;SDS011;31078;48.304;11.896;2022-10-18T00:41:20;7.50;;;5.30;;
45344;SDS011;31078;48.304;11.896;2022-10-18T00:44:03;8.75;;;5.60;;
45344;SDS011;31078;48.304;11.896;2022-10-18T00:46:32;9.10;;;5.37;;
45344;SDS011;31078;48.304;11.896;2022-10-18T00:49:00;9.57;;;5.03;;
45344;SDS011;31078;48.304;11.896;2022-10-18T00:51:30;9.88;;;5.07;;
45344;SDS011;31078;48.304;11.896;2022-10-18T00:53:59;13.85;;;5.35;;
45344;SDS011;31078;48.304;11.896;2022-10-18T00:56:26;8.32;;;5.60;;
45344;SDS011;31078;48.304;11.896;2022-10-18T00:58:54;8.20;;;5.60;;
45344;SDS011;31078;48.304;11.896;2022-10-18T01:01:22;12.82;;;5.22;;
45344;SDS011;31078;48.304;11.896;2022-10-18T01:03:48;10.68;;;5.88;;
45344;SDS011;31078;48.304;11.896;2022-10-18T01:06:16;8.25;;;5.40;;
45344;SDS011;31078;48.304;11.896;2022-10-18T01:08:44;9.27;;;5.60;;
45344;SDS011;31078;48.304;11.896;2022-10-18T01:11:38;8.95;;;5.15;;
45344;SDS011;31078;48.304;11.896;2022-10-18T01:14:24;7.25;;;4.97;;
45344;SDS011;31078;48.304;11.896;2022-10-18T01:17:00;7.15;;;4.72;;
45344;SDS011;31078;48.304;11.896;2022-10-18T01:19:42;8.38;;;4.68;;
45344;SDS011;31078;48.304;11.896;2022-10-18T01:22:26;10.20;;;4.90;;
45344;SDS011;31078;48.304;11.896;2022-10-18T01:25:00;7.68;;;5.10;;
45344;SDS011;31078;48.304;11.896;2022-10-18T01:27:38;8.25;;;4.80;;
45344;SDS011;31078;48.304;11.896;2022-10-18T01:30:19;7.95;;;4.70;;
45344;SDS011;31078;48.304;11.896;2022-10-18T01:33:02;7.00;;;4.30;;
45344;SDS011;31078;48.304;11.896;2022-10-18T01:35:35;7.53;;;4.25;;
45344;SDS011;31078;48.304;11.896;2022-10-18T01:38:08;6.10;;;3.78;;
45344;SDS011;31078;48.304;11.896;2022-10-18T01:40:41;8.75;;;4.63;;
45344;SDS011;31078;48.304;11.896;2022-10-18T01:43:10;10.05;;;4.40;;
45344;SDS011;31078;48.304;11.896;2022-10-18T01:45:40;9.00;;;4.55;;
45344;SDS011;31078;48.304;11.896;2022-10-18T01:48:07;10.25;;;4.93;;
45344;SDS011;31078;48.304;11.896;2022-10-18T01:50:34;6.72;;;4.00;;
45344;SDS011;31078;48.304;11.896;2022-10-18T01:53:01;9.38;;;4.72;;
45344;SDS011;31078;48.304;11.896;2022-10-18T01:55:30;8.27;;;4.30;;
45344;SDS011;31078;48.304;11.896;2022-10-18T01:58:05;6.72;;;4.32;;
45344;SDS011;31078;48.304;11.896;2022-10-18T02:00:43;6.30;;;4.40;;
45344;SDS011;31078;48.304;11.896;2022-10-18T02:03:14;13.07;;;4.35;;
45344;SDS011;31078;48.304;11.896;2022-10-18T02:05:47;8.43;;;4.25;;
45344;SDS011;31078;48.304;11.896;2022-10-18T02:08:22;8.48;;;4.47;;
45344;SDS011;31078;48.304;11.896;2022-10-18T02:10:53;8.25;;;4.32;;
45344;SDS011;31078;48.304;11.896;2022-10-18T02:13:24;7.90;;;3.78;;
45344;SDS011;31078;48.304;11.896;2022-10-18T02:15:58;7.72;;;4.05;;
45344;SDS011;31078;48.304;11.896;2022-10-18T02:20:59;8.40;;;4.13;;
45344;SDS011;31078;48.304;11.896;2022-10-18T02:23:29;7.13;;;3.70;;
45344;SDS011;31078;48.304;11.896;2022-10-18T02:25:56;6.53;;;3.75;;
45344;SDS011;31078;48.304;11.896;2022-10-18T02:28:23;6.25;;;4.10;;
45344;SDS011;31078;48.304;11.896;2022-10-18T02:30:50;6.50;;;4.10;;
45344;SDS011;31078;48.304;11.896;2022-10-18T02:33:27;7.45;;;3.95;;
45344;SDS011;31078;48.304;11.896;2022-10-18T02:35:58;8.25;;;4.60;;
45344;SDS011;31078;48.304;11.896;2022-10-18T02:38:31;6.25;;;4.18;;
45344;SDS011;31078;48.304;11.896;2022-10-18T02:40:58;4.53;;;3.38;;
45344;SDS011;31078;48.304;11.896;2022-10-18T02:43:25;10.35;;;3.95;;
45344;SDS011;31078;48.304;11.896;2022-10-18T02:45:52;13.07;;;4.15;;
45344;SDS011;31078;48.304;11.896;2022-10-18T02:48:19;9.25;;;4.47;;
45344;SDS011;31078;48.304;11.896;2022-10-18T02:50:47;7.88;;;4.68;;
45344;SDS011;31078;48.304;11.896;2022-10-18T02:53:13;10.00;;;4.80;;
45344;SDS011;31078;48.304;11.896;2022-10-18T02:55:40;10.10;;;4.55;;
45344;SDS011;31078;48.304;11.896;2022-10-18T02:58:06;5.32;;;3.70;;
45344;SDS011;31078;48.304;11.896;2022-10-18T03:00:33;6.10;;;4.20;;
45344;SDS011;31078;48.304;11.896;2022-10-18T03:03:00;9.38;;;4.57;;
45344;SDS011;31078;48.304;11.896;2022-10-18T03:05:26;6.95;;;4.50;;
45344;SDS011;31078;48.304;11.896;2022-10-18T03:07:56;10.23;;;5.20;;
45344;SDS011;31078;48.304;11.896;2022-10-18T03:10:23;7.60;;;4.20;;
45344;SDS011;31078;48.304;11.896;2022-10-18T03:12:49;6.32;;;4.43;;
45344;SDS011;31078;48.304;11.896;2022-10-18T03:15:16;6.72;;;4.20;;
45344;SDS011;31078;48.304;11.896;2022-10-18T03:17:42;9.82;;;4.20;;
45344;SDS011;31078;48.304;11.896;2022-10-18T03:20:09;9.75;;;4.20;;
45344;SDS011;31078;48.304;11.896;2022-10-18T03:22:36;9.57;;;4.63;;
45344;SDS011;31078;48.304;11.896;2022-10-18T03:25:04;9.10;;;4.53;;
45344;SDS011;31078;48.304;11.896;2022-10-18T03:27:31;8.52;;;4.25;;
45344;SDS011;31078;48.304;11.896;2022-10-18T03:29:58;6.38;;;4.10;;
45344;SDS011;31078;48.304;11.896;2022-10-18T03:32:25;8.38;;;4.30;;
45344;SDS011;31078;48.304;11.896;2022-10-18T03:34:51;6.43;;;4.30;;
45344;SDS011;31078;48.304;11.896;2022-10-18T03:37:18;9.52;;;4.57;;
45344;SDS011;31078;48.304;11.896;2022-10-18T03:39:44;8.70;;;4.05;;
45344;SDS011;31078;48.304;11.896;2022-10-18T03:42:12;11.02;;;4.80;;
45344;SDS011;31078;48.304;11.896;2022-10-18T03:44:39;8.02;;;4.40;;
45344;SDS011;31078;48.304;11.896;2022-10-18T03:47:05;8.93;;;4.70;;
45344;SDS011;31078;48.304;11.896;2022-10-18T03:49:32;6.63;;;4.28;;
45344;SDS011;31078;48.304;11.896;2022-10-18T03:51:58;8.23;;;4.13;;
45344;SDS011;31078;48.304;11.896;2022-10-18T03:54:25;7.53;;;4.13;;
45344;SDS011;31078;48.304;11.896;2022-10-18T03:56:51;8.35;;;3.90;;
45344;SDS011;31078;48.304;11.896;2022-10-18T03:59:19;6.90;;;4.47;;
45344;SDS011;31078;48.304;11.896;2022-10-18T04:01:46;6.38;;;3.95;;
45344;SDS011;31078;48.304;11.896;2022-10-18T04:04:13;5.50;;;3.90;;
45344;SDS011;31078;48.304;11.896;2022-10-18T04:06:40;8.70;;;3.92;;
45344;SDS011;31078;48.304;11.896;2022-10-18T04:09:07;10.70;;;4.28;;
45344;SDS011;31078;48.304;11.896;2022-10-18T04:11:34;5.65;;;3.72;;
45344;SDS011;31078;48.304;11.896;2022-10-18T04:14:00;6.28;;;4.22;;
45344;SDS011;31078;48.304;11.896;2022-10-18T04:16:28;6.90;;;4.43;;
45344;SDS011;31078;48.304;11.896;2022-10-18T04:18:55;7.50;;;3.92;;
45344;SDS011;31078;48.304;11.896;2022-10-18T04:21:22;8.88;;;4.18;;
45344;SDS011;31078;48.304;11.896;2022-10-18T04:23:49;9.57;;;3.55;;
45344;SDS011;31078;48.304;11.896;2022-10-18T04:26:16;7.35;;;3.95;;
45344;SDS011;31078;48.304;11.896;2022-10-18T04:28:42;9.02;;;4.28;;
45344;SDS011;31078;48.304;11.896;2022-10-18T04:31:10;6.85;;;3.90;;
45344;SDS011;31078;48.304;11.896;2022-10-18T04:33:38;7.15;;;4.20;;
45344;SDS011;31078;48.304;11.896;2022-10-18T04:36:05;8.10;;;3.45;;
45344;SDS011;31078;48.304;11.896;2022-10-18T04:38:32;10.88;;;4.13;;
45344;SDS011;31078;48.304;11.896;2022-10-18T04:40:58;7.10;;;3.90;;
45344;SDS011;31078;48.304;11.896;2022-10-18T04:43:25;6.68;;;3.70;;
45344;SDS011;31078;48.304;11.896;2022-10-18T04:45:51;11.82;;;4.57;;
45344;SDS011;31078;48.304;11.896;2022-10-18T04:48:18;7.13;;;5.05;;
45344;SDS011;31078;48.304;11.896;2022-10-18T04:50:47;7.53;;;5.05;;
45344;SDS011;31078;48.304;11.896;2022-10-18T04:53:14;7.05;;;4.10;;
45344;SDS011;31078;48.304;11.896;2022-10-18T04:55:42;7.72;;;3.83;;
45344;SDS011;31078;48.304;11.896;2022-10-18T04:58:10;8.93;;;4.57;;
45344;SDS011;31078;48.304;11.896;2022-10-18T05:00:38;7.57;;;4.13;;
45344;SDS011;31078;48.304;11.896;2022-10-18T05:03:05;11.18;;;4.80;;
45344;SDS011;31078;48.304;11.896;2022-10-18T05:05:32;7.82;;;4.03;;
45344;SDS011;31078;48.304;11.896;2022-10-18T05:08:00;7.70;;;3.80;;
45344;SDS011;31078;48.304;11.896;2022-10-18T05:10:27;7.70;;;4.20;;
45344;SDS011;31078;48.304;11.896;2022-10-18T05:12:53;6.55;;;4.03;;
45344;SDS011;31078;48.304;11.896;2022-10-18T05:15:20;6.82;;;3.47;;
45344;SDS011;31078;48.304;11.896;2022-10-18T05:17:47;8.95;;;3.90;;
45344;SDS011;31078;48.304;11.896;2022-10-18T05:20:14;6.57;;;3.80;;
45344;SDS011;31078;48.304;11.896;2022-10-18T05:22:40;7.65;;;3.80;;
45344;SDS011;31078;48.304;11.896;2022-10-18T05:25:09;7.07;;;3.97;;
45344;SDS011;31078;48.304;11.896;2022-10-18T05:27:35;6.35;;;3.67;;
45344;SDS011;31078;48.304;11.896;2022-10-18T05:30:02;10.65;;;3.90;;
45344;SDS011;31078;48.304;11.896;2022-10-18T05:32:29;6.85;;;3.25;;
45344;SDS011;31078;48.304;11.896;2022-10-18T05:34:56;5.15;;;3.60;;
45344;SDS011;31078;48.304;11.896;2022-10-18T05:37:23;7.55;;;3.63;;
45344;SDS011;31078;48.304;11.896;2022-10-18T05:39:49;6.10;;;3.90;;
45344;SDS011;31078;48.304;11.896;2022-10-18T05:42:17;7.20;;;3.90;;
45344;SDS011;31078;48.304;11.896;2022-10-18T05:44:44;4.78;;;3.47;;
45344;SDS011;31078;48.304;11.896;2022-10-18T05:47:10;9.88;;;3.78;;
45344;SDS011;31078;48.304;11.896;2022-10-18T05:49:37;10.50;;;3.58;;
45344;SDS011;31078;48.304;11.896;2022-10-18T05:52:04;5.35;;;3.42;;
45344;SDS011;31078;48.304;11.896;2022-10-18T05:54:30;5.85;;;3.17;;
45344;SDS011;31078;48.304;11.896;2022-10-18T05:56:57;7.45;;;3.20;;
45344;SDS011;31078;48.304;11.896;2022-10-18T05:59:25;10.43;;;3.40;;
45344;SDS011;31078;48.304;11.896;2022-10-18T06:01:51;6.35;;;3.58;;
45344;SDS011;31078;48.304;11.896;2022-10-18T06:04:18;12.30;;;3.83;;
45344;SDS011;31078;48.304;11.896;2022-10-18T06:06:45;8.88;;;3.45;;
45344;SDS011;31078;48.304;11.896;2022-10-18T06:09:11;5.55;;;3.10;;
45344;SDS011;31078;48.304;11.896;2022-10-18T06:11:38;6.45;;;3.28;;
45344;SDS011;31078;48.304;11.896;2022-10-18T06:14:06;7.80;;;4.00;;
45344;SDS011;31078;48.304;11.896;2022-10-18T06:16:34;9.18;;;3.60;;
45344;SDS011;31078;48.304;11.896;2022-10-18T06:19:01;6.00;;;3.45;;
45344;SDS011;31078;48.304;11.896;2022-10-18T06:21:27;4.75;;;3.30;;
45344;SDS011;31078;48.304;11.896;2022-10-18T06:23:54;13.73;;;4.28;;
45344;SDS011;31078;48.304;11.896;2022-10-18T06:26:23;11.82;;;4.15;;
45344;SDS011;31078;48.304;11.896;2022-10-18T06:28:50;9.05;;;4.38;;
45344;SDS011;31078;48.304;11.896;2022-10-18T06:31:17;9.23;;;4.13;;
45344;SDS011;31078;48.304;11.896;2022-10-18T06:33:46;7.22;;;3.90;;
45344;SDS011;31078;48.304;11.896;2022-10-18T06:36:13;10.77;;;3.88;;
45344;SDS011;31078;48.304;11.896;2022-10-18T06:38:41;6.82;;;3.60;;
45344;SDS011;31078;48.304;11.896;2022-10-18T06:41:08;7.03;;;3.17;;
45344;SDS011;31078;48.304;11.896;2022-10-18T06:43:35;5.88;;;3.13;;
45344;SDS011;31078;48.304;11.896;2022-10-18T06:46:02;7.20;;;3.42;;
45344;SDS011;31078;48.304;11.896;2022-10-18T06:48:31;5.45;;;3.00;;
45344;SDS011;31078;48.304;11.896;2022-10-18T06:51:00;4.97;;;3.10;;
45344;SDS011;31078;48.304;11.896;2022-10-18T06:53:29;10.63;;;3.45;;
45344;SDS011;31078;48.304;11.896;2022-10-18T06:55:57;9.75;;;3.38;;
45344;SDS011;31078;48.304;11.896;2022-10-18T06:58:24;5.13;;;2.80;;
45344;SDS011;31078;48.304;11.896;2022-10-18T07:00:51;5.50;;;3.08;;
45344;SDS011;31078;48.304;11.896;2022-10-18T07:03:18;6.00;;;3.00;;
45344;SDS011;31078;48.304;11.896;2022-10-18T07:05:45;8.70;;;3.47;;
45344;SDS011;31078;48.304;11.896;2022-10-18T07:08:13;8.07;;;3.25;;
45344;SDS011;31078;48.304;11.896;2022-10-18T07:10:40;6.10;;;3.50;;
45344;SDS011;31078;48.304;11.896;2022-10-18T07:13:06;9.27;;;2.80;;
45344;SDS011;31078;48.304;11.896;2022-10-18T07:15:33;7.55;;;3.13;;
45344;SDS011;31078;48.304;11.896;2022-10-18T07:18:02;7.32;;;3.50;;
45344;SDS011;31078;48.304;11.896;2022-10-18T07:20:29;9.60;;;3.38;;
45344;SDS011;31078;48.304;11.896;2022-10-18T07:22:55;11.95;;;3.78;;
45344;SDS011;31078;48.304;11.896;2022-10-18T07:25:23;4.95;;;2.88;;
45344;SDS011;31078;48.304;11.896;2022-10-18T07:27:50;6.55;;;2.97;;
45344;SDS011;31078;48.304;11.896;2022-10-18T07:30:16;6.15;;;3.25;;
45344;SDS011;31078;48.304;11.896;2022-10-18T07:32:43;10.18;;;3.70;;
45344;SDS011;31078;48.304;11.896;2022-10-18T07:35:09;12.68;;;3.35;;
45344;SDS011;31078;48.304;11.896;2022-10-18T07:37:36;7.90;;;3.30;;
45344;SDS011;31078;48.304;11.896;2022-10-18T07:40:03;8.15;;;3.30;;
45344;SDS011;31078;48.304;11.896;2022-10-18T07:42:31;11.40;;;3.85;;
45344;SDS011;31078;48.304;11.896;2022-10-18T07:45:00;6.57;;;3.85;;
45344;SDS011;31078;48.304;11.896;2022-10-18T07:47:26;7.93;;;3.85;;
45344;SDS011;31078;48.304;11.896;2022-10-18T07:49:53;6.60;;;3.53;;
45344;SDS011;31078;48.304;11.896;2022-10-18T07:52:19;4.40;;;2.80;;
45344;SDS011;31078;48.304;11.896;2022-10-18T07:54:46;9.95;;;3.55;;
45344;SDS011;31078;48.304;11.896;2022-10-18T07:57:12;11.43;;;3.65;;
45344;SDS011;31078;48.304;11.896;2022-10-18T07:59:40;8.52;;;3.80;;
45344;SDS011;31078;48.304;11.896;2022-10-18T08:02:10;6.90;;;3.10;;
45344;SDS011;31078;48.304;11.896;2022-10-18T08:04:37;9.15;;;3.63;;
45344;SDS011;31078;48.304;11.896;2022-10-18T08:07:03;8.15;;;3.70;;
45344;SDS011;31078;48.304;11.896;2022-10-18T08:09:30;6.35;;;3.47;;
45344;SDS011;31078;48.304;11.896;2022-10-18T08:11:59;10.82;;;3.88;;
45344;SDS011;31078;48.304;11.896;2022-10-18T08:14:25;6.47;;;3.60;;
45344;SDS011;31078;48.304;11.896;2022-10-18T08:16:53;5.82;;;3.85;;
45344;SDS011;31078;48.304;11.896;2022-10-18T08:19:20;8.25;;;3.75;;
45344;SDS011;31078;48.304;11.896;2022-10-18T08:21:47;5.90;;;2.92;;
45344;SDS011;31078;48.304;11.896;2022-10-18T08:24:14;6.25;;;3.90;;
45344;SDS011;31078;48.304;11.896;2022-10-18T08:26:40;8.02;;;3.47;;
45344;SDS011;31078;48.304;11.896;2022-10-18T08:29:07;10.32;;;3.78;;
45344;SDS011;31078;48.304;11.896;2022-10-18T08:31:34;14.80;;;3.85;;
45344;SDS011;31078;48.304;11.896;2022-10-18T08:34:02;9.13;;;3.78;;
45344;SDS011;31078;48.304;11.896;2022-10-18T08:36:29;6.80;;;3.72;;
45344;SDS011;31078;48.304;11.896;2022-10-18T08:38:55;9.90;;;3.50;;
45344;SDS011;31078;48.304;11.896;2022-10-18T08:41:35;7.03;;;3.42;;
45344;SDS011;31078;48.304;11.896;2022-10-18T08:44:27;6.43;;;3.75;;
45344;SDS011;31078;48.304;11.896;2022-10-18T08:46:57;12.73;;;4.50;;
45344;SDS011;31078;48.304;11.896;2022-10-18T08:49:31;11.25;;;4.22;;
45344;SDS011;31078;48.304;11.896;2022-10-18T08:52:02;7.95;;;3.85;;
45344;SDS011;31078;48.304;11.896;2022-10-18T08:54:36;5.80;;;3.80;;
45344;SDS011;31078;48.304;11.896;2022-10-18T08:57:09;8.52;;;4.32;;
45344;SDS011;31078;48.304;11.896;2022-10-18T08:59:40;12.60;;;4.35;;
45344;SDS011;31078;48.304;11.896;2022-10-18T09:02:14;7.30;;;4.10;;
45344;SDS011;31078;48.304;11.896;2022-10-18T09:04:47;6.82;;;3.83;;
45344;SDS011;31078;48.304;11.896;2022-10-18T09:10:21;6.72;;;4.10;;
45344;SDS011;31078;48.304;11.896;2022-10-18T09:13:00;8.18;;;4.20;;
45344;SDS011;31078;48.304;11.896;2022-10-18T09:15:38;9.18;;;4.10;;
45344;SDS011;31078;48.304;11.896;2022-10-18T09:21:06;6.85;;;4.13;;
45344;SDS011;31078;48.304;11.896;2022-10-18T09:23:42;10.02;;;4.60;;
45344;SDS011;31078;48.304;11.896;2022-10-18T09:26:13;11.05;;;4.60;;
45344;SDS011;31078;48.304;11.896;2022-10-18T09:28:46;8.20;;;5.05;;
45344;SDS011;31078;48.304;11.896;2022-10-18T09:31:25;8.60;;;4.25;;
45344;SDS011;31078;48.304;11.896;2022-10-18T09:33:59;7.97;;;4.07;;
45344;SDS011;31078;48.304;11.896;2022-10-18T09:36:32;8.68;;;4.10;;
45344;SDS011;31078;48.304;11.896;2022-10-18T09:39:02;7.55;;;4.40;;
45344;SDS011;31078;48.304;11.896;2022-10-18T09:41:36;9.77;;;4.32;;
45344;SDS011;31078;48.304;11.896;2022-10-18T09:44:09;8.25;;;4.32;;
45344;SDS011;31078;48.304;11.896;2022-10-18T09:46:42;9.98;;;4.80;;
45344;SDS011;31078;48.304;11.896;2022-10-18T09:49:14;11.37;;;4.20;;
45344;SDS011;31078;48.304;11.896;2022-10-18T09:51:45;8.70;;;4.28;;
45344;SDS011;31078;48.304;11.896;2022-10-18T09:54:17;7.72;;;4.10;;
45344;SDS011;31078;48.304;11.896;2022-10-18T09:56:48;7.38;;;4.07;;
45344;SDS011;31078;48.304;11.896;2022-10-18T09:59:28;9.80;;;4.78;;
45344;SDS011;31078;48.304;11.896;2022-10-18T10:01:59;10.05;;;4.75;;
45344;SDS011;31078;48.304;11.896;2022-10-18T10:04:25;9.20;;;4.78;;
45344;SDS011;31078;48.304;11.896;2022-10-18T10:06:54;8.75;;;5.28;;
45344;SDS011;31078;48.304;11.896;2022-10-18T10:09:24;8.55;;;4.43;;
45344;SDS011;31078;48.304;11.896;2022-10-18T10:11:53;10.63;;;4.82;;
45344;SDS011;31078;48.304;11.896;2022-10-18T10:14:21;7.38;;;4.55;;
45344;SDS011;31078;48.304;11.896;2022-10-18T10:16:50;11.32;;;4.20;;
45344;SDS011;31078;48.304;11.896;2022-10-18T10:19:20;11.95;;;4.80;;
45344;SDS011;31078;48.304;11.896;2022-10-18T10:21:50;8.55;;;4.80;;
45344;SDS011;31078;48.304;11.896;2022-10-18T10:24:22;12.63;;;4.75;;
45344;SDS011;31078;48.304;11.896;2022-10-18T10:26:57;10.05;;;5.03;;
45344;SDS011;31078;48.304;11.896;2022-10-18T10:29:36;10.27;;;5.13;;
45344;SDS011;31078;48.304;11.896;2022-10-18T10:32:21;8.82;;;4.57;;
45344;SDS011;31078;48.304;11.896;2022-10-18T10:34:50;11.02;;;4.45;;
45344;SDS011;31078;48.304;11.896;2022-10-18T10:37:22;9.15;;;4.78;;
45344;SDS011;31078;48.304;11.896;2022-10-18T10:40:05;13.05;;;5.07;;
45344;SDS011;31078;48.304;11.896;2022-10-18T10:42:47;13.15;;;5.38;;
45344;SDS011;31078;48.304;11.896;2022-10-18T10:45:19;7.07;;;4.22;;
45344;SDS011;31078;48.304;11.896;2022-10-18T10:47:47;9.38;;;4.80;;
45344;SDS011;31078;48.304;11.896;2022-10-18T10:50:20;13.90;;;4.70;;
45344;SDS011;31078;48.304;11.896;2022-10-18T10:52:49;6.50;;;4.22;;
45344;SDS011;31078;48.304;11.896;2022-10-18T10:55:21;8.95;;;4.22;;
45344;SDS011;31078;48.304;11.896;2022-10-18T10:57:51;7.30;;;4.60;;
45344;SDS011;31078;48.304;11.896;2022-10-18T11:00:36;8.73;;;4.63;;
45344;SDS011;31078;48.304;11.896;2022-10-18T11:03:06;8.38;;;4.18;;
45344;SDS011;31078;48.304;11.896;2022-10-18T11:05:41;7.10;;;4.53;;
45344;SDS011;31078;48.304;11.896;2022-10-18T11:08:11;7.35;;;4.00;;
45344;SDS011;31078;48.304;11.896;2022-10-18T11:10:46;7.82;;;4.45;;
45344;SDS011;31078;48.304;11.896;2022-10-18T11:13:21;8.15;;;4.28;;
45344;SDS011;31078;48.304;11.896;2022-10-18T11:15:56;10.63;;;3.45;;
45344;SDS011;31078;48.304;11.896;2022-10-18T11:18:29;7.53;;;4.03;;
45344;SDS011;31078;48.304;11.896;2022-10-18T11:21:00;7.72;;;4.03;;
45344;SDS011;31078;48.304;11.896;2022-10-18T11:23:32;7.97;;;4.22;;
45344;SDS011;31078;48.304;11.896;2022-10-18T11:26:10;8.68;;;3.58;;
45344;SDS011;31078;48.304;11.896;2022-10-18T11:29:04;7.75;;;3.65;;
45344;SDS011;31078;48.304;11.896;2022-10-18T11:31:49;8.25;;;3.55;;
45344;SDS011;31078;48.304;11.896;2022-10-18T11:34:31;6.05;;;3.40;;
45344;SDS011;31078;48.304;11.896;2022-10-18T11:37:08;4.72;;;3.50;;
45344;SDS011;31078;48.304;11.896;2022-10-18T11:39:49;6.88;;;3.25;;
45344;SDS011;31078;48.304;11.896;2022-10-18T11:42:26;10.95;;;3.50;;
45344;SDS011;31078;48.304;11.896;2022-10-18T11:45:01;6.50;;;3.28;;
45344;SDS011;31078;48.304;11.896;2022-10-18T11:47:37;7.38;;;3.40;;
45344;SDS011;31078;48.304;11.896;2022-10-18T11:50:16;5.55;;;3.20;;
45344;SDS011;31078;48.304;11.896;2022-10-18T11:52:52;8.73;;;3.03;;
45344;SDS011;31078;48.304;11.896;2022-10-18T11:55:26;10.45;;;3.03;;
45344;SDS011;31078;48.304;11.896;2022-10-18T11:58:05;7.07;;;3.20;;
45344;SDS011;31078;48.304;11.896;2022-10-18T12:00:45;7.15;;;3.20;;
45344;SDS011;31078;48.304;11.896;2022-10-18T12:03:21;6.75;;;3.17;;
45344;SDS011;31078;48.304;11.896;2022-10-18T12:05:53;6.20;;;2.85;;
45344;SDS011;31078;48.304;11.896;2022-10-18T12:08:24;4.35;;;2.85;;
45344;SDS011;31078;48.304;11.896;2022-10-18T12:10:55;8.15;;;3.10;;
45344;SDS011;31078;48.304;11.896;2022-10-18T12:13:26;6.40;;;2.90;;
45344;SDS011;31078;48.304;11.896;2022-10-18T12:15:58;5.95;;;3.28;;
45344;SDS011;31078;48.304;11.896;2022-10-18T12:18:27;6.20;;;3.33;;
45344;SDS011;31078;48.304;11.896;2022-10-18T12:20:57;5.82;;;3.00;;
45344;SDS011;31078;48.304;11.896;2022-10-18T12:23:31;9.02;;;2.92;;
45344;SDS011;31078;48.304;11.896;2022-10-18T12:26:02;11.20;;;3.20;;
45344;SDS011;31078;48.304;11.896;2022-10-18T12:28:36;6.63;;;3.33;;
45344;SDS011;31078;48.304;11.896;2022-10-18T12:31:12;5.43;;;2.80;;
45344;SDS011;31078;48.304;11.896;2022-10-18T12:33:46;5.10;;;2.88;;
45344;SDS011;31078;48.304;11.896;2022-10-18T12:36:19;6.78;;;2.97;;
45344;SDS011;31078;48.304;11.896;2022-10-18T12:38:59;5.45;;;2.72;;
45344;SDS011;31078;48.304;11.896;2022-10-18T12:41:28;6.35;;;3.20;;
45344;SDS011;31078;48.304;11.896;2022-10-18T12:43:59;7.10;;;3.28;;
45344;SDS011;31078;48.304;11.896;2022-10-18T12:46:41;4.20;;;2.90;;
45344;SDS011;31078;48.304;11.896;2022-10-18T12:49:10;6.85;;;3.28;;
45344;SDS011;31078;48.304;11.896;2022-10-18T12:51:47;5.63;;;2.70;;
45344;SDS011;31078;48.304;11.896;2022-10-18T12:54:17;5.70;;;2.80;;
45344;SDS011;31078;48.304;11.896;2022-10-18T12:56:46;7.03;;;3.17;;
45344;SDS011;31078;48.304;11.896;2022-10-18T13:02:20;9.65;;;3.00;;
45344;SDS011;31078;48.304;11.896;2022-10-18T13:04:52;7.68;;;3.17;;
45344;SDS011;31078;48.304;11.896;2022-10-18T13:07:21;5.18;;;3.00;;
45344;SDS011;31078;48.304;11.896;2022-10-18T13:13:07;13.20;;;3.42;;
45344;SDS011;31078;48.304;11.896;2022-10-18T13:15:58;5.95;;;2.88;;
45344;SDS011;31078;48.304;11.896;2022-10-18T13:18:30;5.20;;;2.88;;
45344;SDS011;31078;48.304;11.896;2022-10-18T13:21:07;7.15;;;2.67;;
45344;SDS011;31078;48.304;11.896;2022-10-18T13:23:41;11.15;;;3.47;;
45344;SDS011;31078;48.304;11.896;2022-10-18T13:26:22;13.02;;;3.45;;
45344;SDS011;31078;48.304;11.896;2022-10-18T13:29:00;11.10;;;3.05;;
45344;SDS011;31078;48.304;11.896;2022-10-18T13:31:37;7.20;;;3.22;;
45344;SDS011;31078;48.304;11.896;2022-10-18T13:34:22;8.13;;;3.25;;
45344;SDS011;31078;48.304;11.896;2022-10-18T13:36:55;10.23;;;3.50;;
45344;SDS011;31078;48.304;11.896;2022-10-18T13:39:24;7.97;;;2.90;;
45344;SDS011;31078;48.304;11.896;2022-10-18T13:44:44;6.22;;;3.33;;
45344;SDS011;31078;48.304;11.896;2022-10-18T13:47:13;6.53;;;3.40;;
45344;SDS011;31078;48.304;11.896;2022-10-18T13:52:41;7.13;;;3.00;;
45344;SDS011;31078;48.304;11.896;2022-10-18T13:58:05;8.60;;;3.08;;
45344;SDS011;31078;48.304;11.896;2022-10-18T14:00:47;8.35;;;3.00;;
45344;SDS011;31078;48.304;11.896;2022-10-18T14:03:39;4.35;;;2.72;;
45344;SDS011;31078;48.304;11.896;2022-10-18T14:06:26;6.32;;;2.80;;
45344;SDS011;31078;48.304;11.896;2022-10-18T14:08:59;5.93;;;3.10;;
45344;SDS011;31078;48.304;11.896;2022-10-18T14:11:30;6.65;;;3.60;;
45344;SDS011;31078;48.304;11.896;2022-10-18T14:14:03;7.53;;;3.42;;
45344;SDS011;31078;48.304;11.896;2022-10-18T14:16:41;5.03;;;2.55;;
45344;SDS011;31078;48.304;11.896;2022-10-18T14:19:15;7.20;;;2.95;;
45344;SDS011;31078;48.304;11.896;2022-10-18T14:21:50;9.60;;;3.00;;
45344;SDS011;31078;48.304;11.896;2022-10-18T14:24:21;5.85;;;2.75;;
45344;SDS011;31078;48.304;11.896;2022-10-18T14:29:38;6.47;;;2.90;;
45344;SDS011;31078;48.304;11.896;2022-10-18T14:32:07;5.03;;;2.83;;
45344;SDS011;31078;48.304;11.896;2022-10-18T14:34:36;12.15;;;2.88;;
45344;SDS011;31078;48.304;11.896;2022-10-18T14:37:05;9.45;;;3.20;;
45344;SDS011;31078;48.304;11.896;2022-10-18T14:39:31;12.73;;;3.42;;
45344;SDS011;31078;48.304;11.896;2022-10-18T14:41:58;9.50;;;2.92;;
45344;SDS011;31078;48.304;11.896;2022-10-18T14:44:26;9.00;;;2.75;;
45344;SDS011;31078;48.304;11.896;2022-10-18T14:46:58;7.22;;;2.70;;
45344;SDS011;31078;48.304;11.896;2022-10-18T14:49:26;11.15;;;3.08;;
45344;SDS011;31078;48.304;11.896;2022-10-18T14:51:54;6.82;;;2.67;;
45344;SDS011;31078;48.304;11.896;2022-10-18T14:54:23;5.63;;;2.83;;
45344;SDS011;31078;48.304;11.896;2022-10-18T14:56:53;5.72;;;2.67;;
45344;SDS011;31078;48.304;11.896;2022-10-18T14:59:21;10.73;;;3.20;;
45344;SDS011;31078;48.304;11.896;2022-10-18T15:01:50;9.38;;;2.90;;
45344;SDS011;31078;48.304;11.896;2022-10-18T15:04:19;7.85;;;3.25;;
45344;SDS011;31078;48.304;11.896;2022-10-18T15:06:47;9.35;;;3.03;;
45344;SDS011;31078;48.304;11.896;2022-10-18T15:09:15;6.78;;;2.67;;
45344;SDS011;31078;48.304;11.896;2022-10-18T15:11:47;8.93;;;2.70;;
45344;SDS011;31078;48.304;11.896;2022-10-18T15:14:15;5.22;;;2.60;;
45344;SDS011;31078;48.304;11.896;2022-10-18T15:16:43;4.97;;;2.40;;